Celebrity Constellation — 9HJB9 — position and weather

sailwx.info

Track history (hours):
 
Tides and Currents Weather Stations Pressure Air Temp Water Temp Dewpoint Dewpoint Depression Visibility Wind Speed Wind Dir Waves Ship Positions

Celebrity Constellation

Last reported at 2019-Jun-16 13:59 UTC. Time now 2019-Jun-16 14:34 UTC.
Position N 40°55' E 001°57'.

Length 294 m; draft 8.3 m.

Type: Passenger vessel. MMSI: 249046000.

Date/timePositionNaut miles runAvg speedWind from/ knotsBaromVisibWave heightAir tempDewpointWater temp
2019-Jun-16 13:59N 40°55' E 001°57'510.3
2019-Jun-16 13:28N 40°59' E 002°02'510.3
2019-Jun-16 13:00N 41°02' E 002°07'510.2
2019-Jun-16 12:30N 41°04' E 002°12'510.0
2019-Jun-16 12:00N 41°07' E 002°18'510.2
2019-Jun-16 11:30N 41°10' E 002°23'510.1
2019-Jun-16 11:00N 41°13' E 002°29'5 9.7
2019-Jun-16 10:30N 41°17' E 002°33'5 9.9
2019-Jun-16 10:00N 41°20' E 002°38'3170.2
2019-Jun-16 10:00N 41°18' E 002°36'815.9 160 / 71030.910.8 19.014.719.0
2019-Jun-16 09:30N 41°24' E 002°43'5 9.8
2019-Jun-16 09:00N 41°28' E 002°47'5 9.6
2019-Jun-16 08:30N 41°31' E 002°52'19 7.5
2019-Jun-16 06:00N 41°42' E 003°12'7 7.5 350 / 81030.910.8 19.412.117.5
2019-Jun-16 05:00N 41°48' E 003°18'6811.4 300 / 261029.810.8 18.012.717.0
2019-Jun-15 23:00N 42°54' E 003°42'22 8.8 300 / 261029.810.8 18.012.717.0
2019-Jun-15 20:31N 43°14' E 003°54'3 9.6
2019-Jun-15 20:14N 43°17' E 003°52'312.8
2019-Jun-15 20:00N 43°18' E 003°48'1100.6 300 / 281028.8 19.810.818.4
2019-Jun-15 19:59N 43°18' E 003°50'5 9.8
2019-Jun-15 19:30N 43°22' E 003°46'3 5.6
2019-Jun-15 18:59N 43°24' E 003°43'0 0.0
2019-Jun-15 18:29N 43°24' E 003°43'0 0.0
2019-Jun-15 18:00N 43°24' E 003°43'0 0.0
2019-Jun-15 17:30N 43°24' E 003°43'0 0.0
2019-Jun-15 17:00N 43°24' E 003°43'164.4
2019-Jun-15 17:00N 43°24' E 003°42'1 1.4 140 / 51026.810.8 21.015.617.0
2019-Jun-15 16:30N 43°24' E 003°43'0 0.0
2019-Jun-15 15:59N 43°24' E 003°43'0 0.0
2019-Jun-15 15:26N 43°24' E 003°43'0 0.0
2019-Jun-15 14:59N 43°24' E 003°43'0 0.0
2019-Jun-15 14:29N 43°24' E 003°43'0 0.0
2019-Jun-15 13:59N 43°24' E 003°43'0 0.0
2019-Jun-15 13:29N 43°24' E 003°43'0 0.0
2019-Jun-15 12:59N 43°24' E 003°43'0 0.0
2019-Jun-15 12:29N 43°24' E 003°43'0 0.0
2019-Jun-15 11:59N 43°24' E 003°43'0 0.0
2019-Jun-15 11:14N 43°24' E 003°43'0 0.0
2019-Jun-15 10:59N 43°24' E 003°43'0 0.0
2019-Jun-15 10:29N 43°24' E 003°43'1 1.4
2019-Jun-15 10:00N 43°24' E 003°42'12510.0 230 / 51026.8 21.316.417.4
2019-Jun-15 09:59N 43°24' E 003°43'0 0.0
2019-Jun-15 09:29N 43°24' E 003°43'0 0.0
2019-Jun-15 08:55N 43°24' E 003°43'0 0.0
2019-Jun-15 08:30N 43°24' E 003°43'0 0.0
2019-Jun-15 08:00N 43°24' E 003°43'0 0.0
2019-Jun-15 07:26N 43°24' E 003°43'0 0.0
2019-Jun-15 06:59N 43°24' E 003°43'0 0.0
2019-Jun-15 06:29N 43°24' E 003°43'0 0.0
2019-Jun-15 05:59N 43°24' E 003°43'0 0.0
2019-Jun-15 05:29N 43°24' E 003°43'0 0.0
2019-Jun-15 04:59N 43°24' E 003°43'0 0.5
2019-Jun-15 04:30N 43°24' E 003°43'3 6.5
2019-Jun-15 04:00N 43°22' E 003°47'7 9.1
2019-Jun-15 03:15N 43°18' E 003°54'310.9
2019-Jun-15 03:00N 43°16' E 003°57'510.8
2019-Jun-15 02:30N 43°14' E 004°04'39 8.7
2019-Jun-14 22:00N 43°00' E 004°54'27 9.0 210 / 201022.8 5.4 18.016.818.0
2019-Jun-14 19:00N 42°54' E 005°30'21 4.3 140 / 181020.8 19.317.418.5
2019-Jun-14 14:00N 43°06' E 005°54'0 0.3 070 / 351020.810.8 22.014.919.0
2019-Jun-14 12:50N 43°06' E 005°54'0 0.0
2019-Jun-14 12:29N 43°06' E 005°54'0 0.0
2019-Jun-14 11:59N 43°06' E 005°54'0 0.0
2019-Jun-14 11:29N 43°06' E 005°54'0 0.0
2019-Jun-14 10:59N 43°06' E 005°54'0 0.0
2019-Jun-14 10:29N 43°06' E 005°54'0 0.6
2019-Jun-14 10:00N 43°06' E 005°54'030.9 070 / 351020.810.8 22.014.919.0
2019-Jun-14 09:59N 43°06' E 005°54'0 0.0
2019-Jun-14 09:29N 43°06' E 005°54'0 0.0
2019-Jun-14 08:59N 43°06' E 005°54'0 0.0
2019-Jun-14 08:29N 43°06' E 005°54'0 0.0
2019-Jun-14 08:00N 43°06' E 005°54'0 0.0
2019-Jun-14 07:30N 43°06' E 005°54'0 0.0
2019-Jun-14 07:00N 43°06' E 005°54'077.2
2019-Jun-14 07:00N 43°06' E 005°54'0 0.6 130 / 51022.8 25.8 8.118.6
2019-Jun-14 06:30N 43°06' E 005°54'0 0.0
2019-Jun-14 06:00N 43°06' E 005°54'0 0.0
2019-Jun-14 05:29N 43°06' E 005°54'0 0.0
2019-Jun-14 05:00N 43°06' E 005°54'018.6
2019-Jun-14 05:00N 43°06' E 005°54'0 0.6 040 / 171025.810.8 20.013.119.0
2019-Jun-14 04:30N 43°06' E 005°54'1 1.9
2019-Jun-14 04:00N 43°06' E 005°55'25 8.4
2019-Jun-14 01:04N 42°55' E 006°25'1 9.7
2019-Jun-14 00:56N 42°56' E 006°27'4 9.6
2019-Jun-14 00:30N 42°56' E 006°33'5 9.6
2019-Jun-14 00:00N 42°57' E 006°39'5 9.6
2019-Jun-13 23:30N 42°58' E 006°46'5 9.3
2019-Jun-13 23:00N 42°60' E 006°52'5 9.4
2019-Jun-13 22:30N 43°02' E 006°57'5 9.3
2019-Jun-13 22:00N 43°04' E 007°03'8494.5
2019-Jun-13 22:00N 43°00' E 006°54'1225.5 040 / 171025.810.8 20.013.119.0
2019-Jun-13 21:30N 43°06' E 007°08'5 9.4
2019-Jun-13 21:00N 43°09' E 007°14'4 8.8
2019-Jun-13 20:30N 43°12' E 007°18'5 9.2
2019-Jun-13 20:00N 43°16' E 007°20'4275.8
2019-Jun-13 20:00N 43°12' E 007°18'918.7 070 / 151025.8 5.4 19.812.719.8
2019-Jun-13 19:30N 43°21' E 007°21'5 9.5
2019-Jun-13 19:00N 43°26' E 007°21'5 9.5
2019-Jun-13 18:30N 43°30' E 007°21'5 9.4
2019-Jun-13 18:00N 43°35' E 007°20'5 9.1
2019-Jun-13 17:30N 43°39' E 007°19'2 3.6
2019-Jun-13 16:59N 43°41' E 007°19'0 0.1
2019-Jun-13 16:28N 43°41' E 007°19'0 0.0
2019-Jun-13 15:58N 43°41' E 007°19'0 0.0
2019-Jun-13 15:28N 43°41' E 007°19'0 0.2
2019-Jun-13 15:05N 43°41' E 007°19'0 0.4
2019-Jun-13 14:58N 43°41' E 007°19'0 0.1
2019-Jun-13 14:28N 43°41' E 007°19'0 0.4
2019-Jun-13 14:22N 43°41' E 007°19'0 0.1
2019-Jun-13 14:06N 43°41' E 007°19'552.7
2019-Jun-13 14:00N 43°36' E 007°18'5962.2 060 / 101026.810.8 22.013.720.0
2019-Jun-13 13:59N 43°41' E 007°19'0 2.9
2019-Jun-13 13:58N 43°41' E 007°19'0 0.1
2019-Jun-13 13:32N 43°41' E 007°19'0 0.0
2019-Jun-13 13:30N 43°41' E 007°19'0 1.7
2019-Jun-13 13:28N 43°41' E 007°19'0 0.4
2019-Jun-13 13:19N 43°41' E 007°19'0 0.2
2019-Jun-13 13:01N 43°41' E 007°19'0 1.3
2019-Jun-13 12:59N 43°41' E 007°19'0 0.1
2019-Jun-13 12:30N 43°41' E 007°19'0 1.1
2019-Jun-13 12:28N 43°41' E 007°19'0 0.3
2019-Jun-13 12:25N 43°41' E 007°19'0 0.1
2019-Jun-13 12:00N 43°41' E 007°19'0 0.0
2019-Jun-13 11:30N 43°41' E 007°19'510.6
2019-Jun-13 11:00N 43°36' E 007°18'5375.9 060 / 101026.810.8 22.013.720.0
2019-Jun-13 10:59N 43°41' E 007°19'0 0.0
2019-Jun-13 10:26N 43°41' E 007°19'0 0.3
2019-Jun-13 10:15N 43°41' E 007°19'0 0.1
2019-Jun-13 09:58N 43°41' E 007°19'0 0.9
2019-Jun-13 09:56N 43°41' E 007°19'0 0.1
2019-Jun-13 09:29N 43°41' E 007°19'0 4.6
2019-Jun-13 09:28N 43°41' E 007°19'0 0.1
2019-Jun-13 09:09N 43°41' E 007°19'0 0.2
2019-Jun-13 08:59N 43°41' E 007°19'0 0.3
2019-Jun-13 08:52N 43°41' E 007°19'0 0.1
2019-Jun-13 08:29N 43°41' E 007°19'0 0.3
2019-Jun-13 08:22N 43°41' E 007°19'0 0.1
2019-Jun-13 07:59N 43°41' E 007°19'0 0.8
2019-Jun-13 07:56N 43°41' E 007°19'1 2.1
2019-Jun-13 07:37N 43°42' E 007°19'1 4.6
2019-Jun-13 07:29N 43°41' E 007°19'018.9
2019-Jun-13 07:29N 43°41' E 007°19'511.0
2019-Jun-13 07:00N 43°36' E 007°18'5383.5 060 / 101025.827.0 20.612.319.9
2019-Jun-13 06:59N 43°41' E 007°19'0 3.4
2019-Jun-13 06:57N 43°41' E 007°19'1 5.1
2019-Jun-13 06:49N 43°42' E 007°19'1 2.2
2019-Jun-13 06:29N 43°41' E 007°19'0 3.2
2019-Jun-13 06:26N 43°41' E 007°19'0 0.6
2019-Jun-13 06:19N 43°41' E 007°19'0 0.9
2019-Jun-13 06:00N 43°42' E 007°19'029.1
2019-Jun-13 06:00N 43°41' E 007°19'0 8.4
2019-Jun-13 05:59N 43°41' E 007°19'0 0.2
2019-Jun-13 05:30N 43°41' E 007°19'0 7.2
2019-Jun-13 05:29N 43°41' E 007°19'0 0.3
2019-Jun-13 04:59N 43°41' E 007°19'0 9.9
2019-Jun-13 04:58N 43°41' E 007°19'0 0.1
2019-Jun-13 04:30N 43°41' E 007°19'1 2.9
2019-Jun-13 04:01N 43°40' E 007°19'2 4.3
2019-Jun-13 03:30N 43°38' E 007°21'2 3.5
2019-Jun-13 03:00N 43°37' E 007°23'2 3.5
2019-Jun-13 02:30N 43°37' E 007°25'2 4.2
2019-Jun-13 02:01N 43°38' E 007°28'6351.9
2019-Jun-13 02:00N 43°36' E 007°36'4 8.6 210 1023.810.8 19.013.720.0
2019-Jun-13 01:31N 43°38' E 007°31'2 4.3
2019-Jun-13 01:00N 43°38' E 007°34'2 4.6
2019-Jun-13 00:31N 43°38' E 007°37'2 4.4
2019-Jun-13 00:01N 43°38' E 007°40'2 3.9
2019-Jun-12 23:30N 43°38' E 007°43'2 3.8
2019-Jun-12 23:01N 43°38' E 007°46'2 4.0
2019-Jun-12 22:30N 43°38' E 007°48'2 4.0
2019-Jun-12 22:00N 43°38' E 007°51'3190.8
2019-Jun-12 22:00N 43°36' E 007°48'5 9.9 210 / 171023.810.8 19.013.720.0
2019-Jun-12 21:30N 43°38' E 007°54'2 4.3
2019-Jun-12 21:01N 43°38' E 007°57'2 4.3
2019-Jun-12 20:31N 43°38' E 007°60'2 4.1
2019-Jun-12 20:01N 43°38' E 008°03'2 3.2
2019-Jun-12 19:30N 43°38' E 008°05'2 3.2
2019-Jun-12 19:01N 43°39' E 008°07'3165.5
2019-Jun-12 19:00N 43°36' E 008°06'4 7.8 200 / 141023.827.0 19.512.319.2
2019-Jun-12 18:31N 43°39' E 008°09'2 3.2
2019-Jun-12 18:00N 43°39' E 008°11'2 4.1
2019-Jun-12 17:30N 43°40' E 008°14'4 7.1
2019-Jun-12 17:00N 43°41' E 008°18'4 7.1
2019-Jun-12 16:31N 43°44' E 008°22'3 6.9
2019-Jun-12 16:01N 43°46' E 008°26'3 6.7
2019-Jun-12 15:30N 43°47' E 008°30'1 2.5
2019-Jun-12 15:01N 43°47' E 008°32'2117.6
2019-Jun-12 15:00N 43°48' E 008°30'2 3.6 210 1021.810.8 21.014.020.0
2019-Jun-12 14:30N 43°46' E 008°31'1 1.5
2019-Jun-12 14:00N 43°47' E 008°30'1 1.7
2019-Jun-12 13:30N 43°47' E 008°32'1 1.7
2019-Jun-12 13:00N 43°47' E 008°30'1 1.6
2019-Jun-12 12:30N 43°47' E 008°31'0 0.6
2019-Jun-12 12:00N 43°46' E 008°31'1 1.8
2019-Jun-12 11:31N 43°47' E 008°30'1 1.1
2019-Jun-12 11:01N 43°47' E 008°30'1 1.2
2019-Jun-12 10:31N 43°47' E 008°31'1 1.2
2019-Jun-12 10:00N 43°47' E 008°30'5300.8
2019-Jun-12 10:00N 43°42' E 008°30'511.1 210 / 131021.810.8 21.014.020.0
2019-Jun-12 09:30N 43°47' E 008°30'0 0.2
2019-Jun-12 09:00N 43°47' E 008°30'1 1.5
2019-Jun-12 08:30N 43°48' E 008°29'1 1.3
2019-Jun-12 08:00N 43°48' E 008°29'1 2.6
2019-Jun-12 07:30N 43°49' E 008°31'1 2.8
2019-Jun-12 07:00N 43°50' E 008°32'1 2.7
2019-Jun-12 06:30N 43°51' E 008°34'1 3.0
2019-Jun-12 06:00N 43°52' E 008°35'5353.6
2019-Jun-12 06:00N 43°48' E 008°30'713.5 200 / 151019.727.0 19.714.320.1
2019-Jun-12 05:30N 43°53' E 008°37'2 3.1
2019-Jun-12 05:00N 43°53' E 008°38'2196.2
2019-Jun-12 05:00N 43°54' E 008°36'3 6.0 140 1019.710.8 21.017.520.0
2019-Jun-12 04:30N 43°55' E 008°40'1 3.0
2019-Jun-12 04:00N 43°55' E 008°42'1 2.9
2019-Jun-12 03:30N 43°56' E 008°43'2 3.1
2019-Jun-12 03:00N 43°57' E 008°45'6 6.2
2019-Jun-12 02:00N 44°01' E 008°52'3 6.4
2019-Jun-12 01:30N 44°03' E 008°55'3 6.8
2019-Jun-12 01:00N 44°06' E 008°58'3 6.3
2019-Jun-12 00:30N 44°08' E 009°02'2 3.1
2019-Jun-12 00:00N 44°09' E 009°04'2 3.2
2019-Jun-11 23:30N 44°10' E 009°05'2 3.3
2019-Jun-11 23:00N 44°11' E 009°07'2 3.3
2019-Jun-11 22:30N 44°12' E 009°09'2 3.2
2019-Jun-11 22:01N 44°13' E 009°11'3196.1
2019-Jun-11 22:00N 44°12' E 009°06'510.0 140 / 51019.710.8 21.017.520.0
2019-Jun-11 21:30N 44°14' E 009°12'2 3.2
2019-Jun-11 21:00N 44°15' E 009°14'2 3.1
2019-Jun-11 20:30N 44°15' E 009°16'1 2.6
2019-Jun-11 20:00N 44°17' E 009°16'2 3.9
2019-Jun-11 19:30N 44°18' E 009°14'1 1.0
2019-Jun-11 18:58N 44°19' E 009°14'0 0.0
2019-Jun-11 18:25N 44°19' E 009°14'1 3.4
2019-Jun-11 18:00N 44°18' E 009°12'148.2 230 / 91018.7 5.4 21.817.721.4
2019-Jun-11 17:58N 44°19' E 009°14'0 0.0
2019-Jun-11 17:29N 44°19' E 009°14'1 3.0
2019-Jun-11 17:00N 44°18' E 009°12'11299.8 220 / 111019.710.8 22.617.621.5
2019-Jun-11 16:59N 44°19' E 009°14'0 0.0
2019-Jun-11 16:26N 44°19' E 009°14'0 0.0
2019-Jun-11 15:59N 44°19' E 009°14'0 0.0
2019-Jun-11 15:29N 44°19' E 009°14'0 0.0
2019-Jun-11 14:59N 44°19' E 009°14'0 0.0
2019-Jun-11 14:29N 44°19' E 009°14'0 0.0
2019-Jun-11 13:59N 44°19' E 009°14'0 0.0
2019-Jun-11 13:26N 44°19' E 009°14'1 3.3
2019-Jun-11 13:00N 44°18' E 009°12'11323.5 220 / 111019.710.8 22.617.621.5
2019-Jun-11 12:59N 44°19' E 009°14'0 0.0
2019-Jun-11 12:29N 44°19' E 009°14'0 0.0
2019-Jun-11 11:59N 44°19' E 009°14'0 0.0
2019-Jun-11 11:29N 44°19' E 009°14'0 0.0
2019-Jun-11 10:59N 44°19' E 009°14'0 0.0
2019-Jun-11 10:26N 44°19' E 009°14'0 0.0
2019-Jun-11 09:59N 44°19' E 009°14'0 0.0
2019-Jun-11 09:29N 44°19' E 009°14'0 0.0
2019-Jun-11 08:59N 44°19' E 009°14'0 0.0
2019-Jun-11 08:29N 44°19' E 009°14'0 0.0
2019-Jun-11 07:56N 44°19' E 009°14'0 0.0
2019-Jun-11 07:26N 44°19' E 009°14'0 0.0
2019-Jun-11 06:59N 44°19' E 009°14'0 0.0
2019-Jun-11 06:29N 44°19' E 009°14'0 0.0
2019-Jun-11 06:00N 44°19' E 009°14'0 0.5
2019-Jun-11 05:30N 44°18' E 009°14'3 6.9
2019-Jun-11 05:00N 44°16' E 009°17'4 9.0
2019-Jun-11 04:30N 44°12' E 009°19'4 8.9
2019-Jun-11 04:00N 44°07' E 009°20'4 8.6
2019-Jun-11 03:30N 44°03' E 009°22'4 8.1
2019-Jun-11 03:00N 43°59' E 009°24'8492.0
2019-Jun-11 03:00N 44°06' E 009°18'1224.9 310 / 61020.810.8 20.017.520.0
2019-Jun-11 02:30N 43°56' E 009°26'4 8.4
2019-Jun-11 02:00N 43°52' E 009°29'4 8.5
2019-Jun-11 01:30N 43°48' E 009°31'4 8.5
2019-Jun-11 01:00N 43°44' E 009°34'4 8.5
2019-Jun-11 00:30N 43°40' E 009°36'4 8.4
2019-Jun-11 00:00N 43°36' E 009°39'4 7.9
2019-Jun-10 23:30N 43°34' E 009°43'4 8.6
2019-Jun-10 23:00N 43°33' E 009°49'6350.0
2019-Jun-10 23:00N 43°30' E 009°42'918.7 310 / 61020.810.8 20.017.520.0
2019-Jun-10 22:30N 43°31' E 009°54'4 8.3
2019-Jun-10 22:00N 43°30' E 009°60'4 8.3
2019-Jun-10 21:30N 43°30' E 010°06'4 8.2
2019-Jun-10 21:00N 43°30' E 010°11'4 8.2
2019-Jun-10 20:30N 43°32' E 010°16'1 2.7
2019-Jun-10 20:00N 43°33' E 010°18'0 0.0
2019-Jun-10 19:30N 43°33' E 010°18'0 0.0
2019-Jun-10 19:00N 43°33' E 010°18'0 0.0
2019-Jun-10 18:29N 43°33' E 010°18'3 6.4
2019-Jun-10 18:00N 43°30' E 010°18'3517.2 240 / 41018.710.8 22.117.620.5
2019-Jun-10 17:59N 43°33' E 010°18'0 0.0
2019-Jun-10 17:29N 43°33' E 010°18'3 6.4
2019-Jun-10 17:00N 43°30' E 010°18'3517.2 200 / 61020.810.8 26.0 9.819.0
2019-Jun-10 16:59N 43°33' E 010°18'0 0.0
2019-Jun-10 16:29N 43°33' E 010°18'0 0.0
2019-Jun-10 15:59N 43°33' E 010°18'0 0.0
2019-Jun-10 15:29N 43°33' E 010°18'0 0.0
2019-Jun-10 14:59N 43°33' E 010°18'0 0.0
2019-Jun-10 14:29N 43°33' E 010°18'0 0.0
2019-Jun-10 13:59N 43°33' E 010°18'0 0.0
2019-Jun-10 13:29N 43°33' E 010°18'0 0.0
2019-Jun-10 12:59N 43°33' E 010°18'0 0.0
2019-Jun-10 12:29N 43°33' E 010°18'3 6.4
2019-Jun-10 12:00N 43°30' E 010°18'3541.8 200 / 61020.810.8 26.0 9.819.0
2019-Jun-10 11:59N 43°33' E 010°18'0 0.0
2019-Jun-10 11:29N 43°33' E 010°18'0 0.0
2019-Jun-10 11:00N 43°33' E 010°18'0 0.0
2019-Jun-10 10:28N 43°33' E 010°18'0 0.0
2019-Jun-10 09:58N 43°33' E 010°18'0 0.0
2019-Jun-10 09:25N 43°33' E 010°18'0 0.0
2019-Jun-10 08:58N 43°33' E 010°18'0 0.0
2019-Jun-10 08:28N 43°33' E 010°18'0 0.0
2019-Jun-10 07:58N 43°33' E 010°18'0 0.0
2019-Jun-10 07:28N 43°33' E 010°18'510.9
2019-Jun-10 07:00N 43°30' E 010°12'5122.8 060 / 111021.7 23.710.719.7
2019-Jun-10 06:57N 43°33' E 010°18'0 0.0
2019-Jun-10 06:29N 43°33' E 010°18'0 0.0
2019-Jun-10 05:59N 43°33' E 010°18'0 0.0
2019-Jun-10 05:28N 43°33' E 010°18'0 0.0
2019-Jun-10 05:00N 43°33' E 010°18'862155090.5
2019-Jun-10 05:00N 43°30' E 030°06'8621782.8 080 / 141023.810.8 21.018.320.0
2019-Jun-10 04:31N 43°33' E 010°18'2 4.2
2019-Jun-10 04:00N 43°31' E 010°16'4 8.4
2019-Jun-10 03:31N 43°28' E 010°13'510.5
2019-Jun-10 03:00N 43°23' E 010°11'611.6
2019-Jun-10 02:30N 43°17' E 010°10'611.5
2019-Jun-10 02:00N 43°11' E 010°08'611.5
2019-Jun-10 01:30N 43°06' E 010°06'611.5
2019-Jun-10 01:01N 43°00' E 010°04'611.9
2019-Jun-10 00:31N 42°54' E 010°03'611.8
2019-Jun-10 00:00N 42°49' E 010°01'611.4
2019-Jun-09 23:30N 42°43' E 010°03'714.4
2019-Jun-09 23:00N 42°36' E 010°06'812.3 080 / 141023.810.8 21.018.320.0
2019-Jun-09 22:20N 42°33' E 010°16'411.7
2019-Jun-09 22:01N 42°30' E 010°20'611.9
2019-Jun-09 21:31N 42°26' E 010°25'611.9
2019-Jun-09 21:01N 42°21' E 010°29'612.1
2019-Jun-09 20:30N 42°15' E 010°33'612.1
2019-Jun-09 20:00N 42°10' E 010°37'4290.6
2019-Jun-09 20:00N 42°06' E 010°36'610.1 150 / 81025.827.0 22.918.320.2
2019-Jun-09 19:22N 42°05' E 010°44'412.2
2019-Jun-09 19:00N 42°04' E 010°50'612.1
2019-Jun-09 18:31N 42°03' E 010°58'811.9
2019-Jun-09 17:52N 42°01' E 011°08'411.9
2019-Jun-09 17:31N 41°59' E 011°13'611.8
2019-Jun-09 17:01N 41°58' E 011°21'1511.7
2019-Jun-09 15:45N 42°05' E 011°39'3 3.6
2019-Jun-09 15:00N 42°06' E 011°36'4 0.6 120 / 101029.810.8 24.014.520.0
2019-Jun-09 07:00N 42°06' E 011°42'0 0.0 120 / 101029.810.8 24.014.520.0
2019-Jun-09 03:00N 42°06' E 011°42'3310.0 010 / 71029.8 21.520.219.0
2019-Jun-08 23:39N 41°36' E 012°00'3117.5
2019-Jun-08 21:52N 41°17' E 012°34'617.1
2019-Jun-08 21:30N 41°13' E 012°40'1016.8
2019-Jun-08 20:55N 41°09' E 012°52'2617.1
2019-Jun-08 19:25N 40°55' E 013°21'817.0
2019-Jun-08 18:56N 40°51' E 013°30'1316.9
2019-Jun-08 18:11N 40°43' E 013°44'317.1
2019-Jun-08 18:00N 40°41' E 013°47'8606.7
2019-Jun-08 18:00N 40°42' E 013°36'1633.3 010 / 51031.910.8 23.018.822.0
2019-Jun-08 17:30N 40°39' E 013°57'816.5
2019-Jun-08 17:00N 40°41' E 014°07'816.9
2019-Jun-08 16:30N 40°47' E 014°15'3 5.6
2019-Jun-08 15:57N 40°50' E 014°16'0 0.0
2019-Jun-08 15:24N 40°50' E 014°16'4 8.7
2019-Jun-08 15:00N 40°48' E 014°12'442.0 180 / 71030.8 26.119.119.1
2019-Jun-08 14:54N 40°50' E 014°16'0 0.0
2019-Jun-08 14:27N 40°50' E 014°16'0 0.0
2019-Jun-08 13:57N 40°50' E 014°16'0 0.0
2019-Jun-08 13:27N 40°50' E 014°16'0 0.0
2019-Jun-08 12:57N 40°50' E 014°16'0 0.0
2019-Jun-08 12:27N 40°50' E 014°16'0 0.0
2019-Jun-08 11:51N 40°50' E 014°16'0 0.0
2019-Jun-08 11:31N 40°50' E 014°16'0 0.0
2019-Jun-08 11:00N 40°50' E 014°16'0 0.0
2019-Jun-08 10:31N 40°50' E 014°16'0 0.0
2019-Jun-08 10:01N 40°50' E 014°16'0 0.0
2019-Jun-08 09:31N 40°50' E 014°16'0 0.0
2019-Jun-08 09:01N 40°50' E 014°16'0 0.0
2019-Jun-08 08:31N 40°50' E 014°16'0 0.0
2019-Jun-08 08:01N 40°50' E 014°16'0 0.0
2019-Jun-08 07:31N 40°50' E 014°16'0 0.0
2019-Jun-08 07:00N 40°50' E 014°16'4324.9
2019-Jun-08 07:00N 40°48' E 014°12'4 7.4 090 / 21031.9 5.4 29.013.319.0
2019-Jun-08 06:30N 40°50' E 014°16'0 0.0
2019-Jun-08 06:00N 40°50' E 014°16'0 0.0
2019-Jun-08 05:30N 40°50' E 014°16'0 0.0
2019-Jun-08 05:00N 40°50' E 014°16'0 0.4
2019-Jun-08 04:30N 40°50' E 014°16'2 3.5
2019-Jun-08 04:00N 40°49' E 014°17'713.8
2019-Jun-08 03:30N 40°42' E 014°17'1016.9
2019-Jun-08 02:55N 40°32' E 014°19'717.1
2019-Jun-08 02:30N 40°26' E 014°23'816.8
2019-Jun-08 02:00N 40°18' E 014°28'6396.9
2019-Jun-08 02:00N 40°24' E 014°24'1530.3 200 / 71027.8 24.620.617.1
2019-Jun-08 01:30N 40°11' E 014°32'816.6
2019-Jun-08 01:00N 40°03' E 014°37'916.6
2019-Jun-08 00:28N 39°55' E 014°42'1616.8
2019-Jun-07 23:32N 39°41' E 014°51'116.8
2019-Jun-07 23:30N 39°41' E 014°52'816.8
2019-Jun-07 23:00N 39°33' E 014°56'816.9
2019-Jun-07 22:30N 39°25' E 015°01'1116.9
2019-Jun-07 21:52N 39°16' E 015°07'917.0
2019-Jun-07 21:19N 39°07' E 015°12'916.9
2019-Jun-07 20:48N 38°60' E 015°18'516.9
2019-Jun-07 20:29N 38°55' E 015°21'916.9
2019-Jun-07 19:59N 38°48' E 015°26'816.7
2019-Jun-07 19:30N 38°40' E 015°30'816.8
2019-Jun-07 19:00N 38°33' E 015°35'816.9
2019-Jun-07 18:31N 38°25' E 015°39'816.3
2019-Jun-07 18:00N 38°17' E 015°42'715.0
2019-Jun-07 17:30N 38°11' E 015°37'816.0
2019-Jun-07 17:01N 38°04' E 015°33'9521.2
2019-Jun-07 17:00N 38°12' E 015°36'1836.7 200 / 71027.8 24.620.617.1
2019-Jun-07 16:30N 37°55' E 015°29'1018.9
2019-Jun-07 16:00N 37°47' E 015°23'21 2.4
2019-Jun-07 07:00N 37°30' E 015°06'20 5.1 200 / 71027.8 24.620.617.1
2019-Jun-07 03:00N 37°12' E 015°18'7 8.4 280 / 101026.810.8 19.718.419.9
2019-Jun-07 02:13N 37°07' E 015°23'5216.3
2019-Jun-06 23:00N 36°18' E 015°00'39 7.7 110 / 51025.810.8 19.818.620.1
2019-Jun-06 18:00N 35°48' E 014°30'6 3.0 170 / 81026.810.8 22.018.520.0
2019-Jun-06 16:00N 35°54' E 014°30'   110 / 151025.810.8 24.116.219.7
Track history (hours):
 
Tides and Currents Weather Stations Pressure Air Temp Water Temp Dewpoint Dewpoint Depression Visibility Wind Speed Wind Dir Waves Ship Positions

Celebrity Constellation

Last reported at 2019-Jun-16 13:59 UTC. Time now 2019-Jun-16 14:34 UTC.
Position N 40°55' E 001°57'.

Length 294 m; draft 8.3 m.

Type: Passenger vessel. MMSI: 249046000.

Date/timePositionNaut miles runAvg speedWind from/ knotsBaromVisibWave heightAir tempDewpointWater temp
2019-Jun-16 13:59N 40°55' E 001°57'510.3
2019-Jun-16 13:28N 40°59' E 002°02'510.3
2019-Jun-16 13:00N 41°02' E 002°07'510.2
2019-Jun-16 12:30N 41°04' E 002°12'510.0
2019-Jun-16 12:00N 41°07' E 002°18'510.2
2019-Jun-16 11:30N 41°10' E 002°23'510.1
2019-Jun-16 11:00N 41°13' E 002°29'5 9.7
2019-Jun-16 10:30N 41°17' E 002°33'5 9.9
2019-Jun-16 10:00N 41°20' E 002°38'3170.2
2019-Jun-16 10:00N 41°18' E 002°36'815.9 160 / 71030.910.8 19.014.719.0
2019-Jun-16 09:30N 41°24' E 002°43'5 9.8
2019-Jun-16 09:00N 41°28' E 002°47'5 9.6
2019-Jun-16 08:30N 41°31' E 002°52'19 7.5
2019-Jun-16 06:00N 41°42' E 003°12'7 7.5 350 / 81030.910.8 19.412.117.5
2019-Jun-16 05:00N 41°48' E 003°18'6811.4 300 / 261029.810.8 18.012.717.0
2019-Jun-15 23:00N 42°54' E 003°42'22 8.8 300 / 261029.810.8 18.012.717.0
2019-Jun-15 20:31N 43°14' E 003°54'3 9.6
2019-Jun-15 20:14N 43°17' E 003°52'312.8
2019-Jun-15 20:00N 43°18' E 003°48'1100.6 300 / 281028.8 19.810.818.4
2019-Jun-15 19:59N 43°18' E 003°50'5 9.8
2019-Jun-15 19:30N 43°22' E 003°46'3 5.6
2019-Jun-15 18:59N 43°24' E 003°43'0 0.0
2019-Jun-15 18:29N 43°24' E 003°43'0 0.0
2019-Jun-15 18:00N 43°24' E 003°43'0 0.0
2019-Jun-15 17:30N 43°24' E 003°43'0 0.0
2019-Jun-15 17:00N 43°24' E 003°43'164.4
2019-Jun-15 17:00N 43°24' E 003°42'1 1.4 140 / 51026.810.8 21.015.617.0
2019-Jun-15 16:30N 43°24' E 003°43'0 0.0
2019-Jun-15 15:59N 43°24' E 003°43'0 0.0
2019-Jun-15 15:26N 43°24' E 003°43'0 0.0
2019-Jun-15 14:59N 43°24' E 003°43'0 0.0
2019-Jun-15 14:29N 43°24' E 003°43'0 0.0
2019-Jun-15 13:59N 43°24' E 003°43'0 0.0
2019-Jun-15 13:29N 43°24' E 003°43'0 0.0
2019-Jun-15 12:59N 43°24' E 003°43'0 0.0
2019-Jun-15 12:29N 43°24' E 003°43'0 0.0
2019-Jun-15 11:59N 43°24' E 003°43'0 0.0
2019-Jun-15 11:14N 43°24' E 003°43'0 0.0
2019-Jun-15 10:59N 43°24' E 003°43'0 0.0
2019-Jun-15 10:29N 43°24' E 003°43'1 1.4
2019-Jun-15 10:00N 43°24' E 003°42'12510.0 230 / 51026.8 21.316.417.4
2019-Jun-15 09:59N 43°24' E 003°43'0 0.0
2019-Jun-15 09:29N 43°24' E 003°43'0 0.0
2019-Jun-15 08:55N 43°24' E 003°43'0 0.0
2019-Jun-15 08:30N 43°24' E 003°43'0 0.0
2019-Jun-15 08:00N 43°24' E 003°43'0 0.0
2019-Jun-15 07:26N 43°24' E 003°43'0 0.0
2019-Jun-15 06:59N 43°24' E 003°43'0 0.0
2019-Jun-15 06:29N 43°24' E 003°43'0 0.0
2019-Jun-15 05:59N 43°24' E 003°43'0 0.0
2019-Jun-15 05:29N 43°24' E 003°43'0 0.0
2019-Jun-15 04:59N 43°24' E 003°43'0 0.5
2019-Jun-15 04:30N 43°24' E 003°43'3 6.5
2019-Jun-15 04:00N 43°22' E 003°47'7 9.1
2019-Jun-15 03:15N 43°18' E 003°54'310.9
2019-Jun-15 03:00N 43°16' E 003°57'510.8
2019-Jun-15 02:30N 43°14' E 004°04'39 8.7
2019-Jun-14 22:00N 43°00' E 004°54'27 9.0 210 / 201022.8 5.4 18.016.818.0
2019-Jun-14 19:00N 42°54' E 005°30'21 4.3 140 / 181020.8 19.317.418.5
2019-Jun-14 14:00N 43°06' E 005°54'0 0.3 070 / 351020.810.8 22.014.919.0
2019-Jun-14 12:50N 43°06' E 005°54'0 0.0
2019-Jun-14 12:29N 43°06' E 005°54'0 0.0
2019-Jun-14 11:59N 43°06' E 005°54'0 0.0
2019-Jun-14 11:29N 43°06' E 005°54'0 0.0
2019-Jun-14 10:59N 43°06' E 005°54'0 0.0
2019-Jun-14 10:29N 43°06' E 005°54'0 0.6
2019-Jun-14 10:00N 43°06' E 005°54'030.9 070 / 351020.810.8 22.014.919.0
2019-Jun-14 09:59N 43°06' E 005°54'0 0.0
2019-Jun-14 09:29N 43°06' E 005°54'0 0.0
2019-Jun-14 08:59N 43°06' E 005°54'0 0.0
2019-Jun-14 08:29N 43°06' E 005°54'0 0.0
2019-Jun-14 08:00N 43°06' E 005°54'0 0.0
2019-Jun-14 07:30N 43°06' E 005°54'0 0.0
2019-Jun-14 07:00N 43°06' E 005°54'077.2
2019-Jun-14 07:00N 43°06' E 005°54'0 0.6 130 / 51022.8 25.8 8.118.6
2019-Jun-14 06:30N 43°06' E 005°54'0 0.0
2019-Jun-14 06:00N 43°06' E 005°54'0 0.0
2019-Jun-14 05:29N 43°06' E 005°54'0 0.0
2019-Jun-14 05:00N 43°06' E 005°54'018.6
2019-Jun-14 05:00N 43°06' E 005°54'0 0.6 040 / 171025.810.8 20.013.119.0
2019-Jun-14 04:30N 43°06' E 005°54'1 1.9
2019-Jun-14 04:00N 43°06' E 005°55'25 8.4
2019-Jun-14 01:04N 42°55' E 006°25'1 9.7
2019-Jun-14 00:56N 42°56' E 006°27'4 9.6
2019-Jun-14 00:30N 42°56' E 006°33'5 9.6
2019-Jun-14 00:00N 42°57' E 006°39'5 9.6
2019-Jun-13 23:30N 42°58' E 006°46'5 9.3
2019-Jun-13 23:00N 42°60' E 006°52'5 9.4
2019-Jun-13 22:30N 43°02' E 006°57'5 9.3
2019-Jun-13 22:00N 43°04' E 007°03'8494.5
2019-Jun-13 22:00N 43°00' E 006°54'1225.5 040 / 171025.810.8 20.013.119.0
2019-Jun-13 21:30N 43°06' E 007°08'5 9.4
2019-Jun-13 21:00N 43°09' E 007°14'4 8.8
2019-Jun-13 20:30N 43°12' E 007°18'5 9.2
2019-Jun-13 20:00N 43°16' E 007°20'4275.8
2019-Jun-13 20:00N 43°12' E 007°18'918.7 070 / 151025.8 5.4 19.812.719.8
2019-Jun-13 19:30N 43°21' E 007°21'5 9.5
2019-Jun-13 19:00N 43°26' E 007°21'5 9.5
2019-Jun-13 18:30N 43°30' E 007°21'5 9.4
2019-Jun-13 18:00N 43°35' E 007°20'5 9.1
2019-Jun-13 17:30N 43°39' E 007°19'2 3.6
2019-Jun-13 16:59N 43°41' E 007°19'0 0.1
2019-Jun-13 16:28N 43°41' E 007°19'0 0.0
2019-Jun-13 15:58N 43°41' E 007°19'0 0.0
2019-Jun-13 15:28N 43°41' E 007°19'0 0.2
2019-Jun-13 15:05N 43°41' E 007°19'0 0.4
2019-Jun-13 14:58N 43°41' E 007°19'0 0.1
2019-Jun-13 14:28N 43°41' E 007°19'0 0.4
2019-Jun-13 14:22N 43°41' E 007°19'0 0.1
2019-Jun-13 14:06N 43°41' E 007°19'552.7
2019-Jun-13 14:00N 43°36' E 007°18'5962.2 060 / 101026.810.8 22.013.720.0
2019-Jun-13 13:59N 43°41' E 007°19'0 2.9
2019-Jun-13 13:58N 43°41' E 007°19'0 0.1
2019-Jun-13 13:32N 43°41' E 007°19'0 0.0
2019-Jun-13 13:30N 43°41' E 007°19'0 1.7
2019-Jun-13 13:28N 43°41' E 007°19'0 0.4
2019-Jun-13 13:19N 43°41' E 007°19'0 0.2
2019-Jun-13 13:01N 43°41' E 007°19'0 1.3
2019-Jun-13 12:59N 43°41' E 007°19'0 0.1
2019-Jun-13 12:30N 43°41' E 007°19'0 1.1
2019-Jun-13 12:28N 43°41' E 007°19'0 0.3
2019-Jun-13 12:25N 43°41' E 007°19'0 0.1
2019-Jun-13 12:00N 43°41' E 007°19'0 0.0
2019-Jun-13 11:30N 43°41' E 007°19'510.6
2019-Jun-13 11:00N 43°36' E 007°18'5375.9 060 / 101026.810.8 22.013.720.0
2019-Jun-13 10:59N 43°41' E 007°19'0 0.0
2019-Jun-13 10:26N 43°41' E 007°19'0 0.3
2019-Jun-13 10:15N 43°41' E 007°19'0 0.1
2019-Jun-13 09:58N 43°41' E 007°19'0 0.9
2019-Jun-13 09:56N 43°41' E 007°19'0 0.1
2019-Jun-13 09:29N 43°41' E 007°19'0 4.6
2019-Jun-13 09:28N 43°41' E 007°19'0 0.1
2019-Jun-13 09:09N 43°41' E 007°19'0 0.2
2019-Jun-13 08:59N 43°41' E 007°19'0 0.3
2019-Jun-13 08:52N 43°41' E 007°19'0 0.1
2019-Jun-13 08:29N 43°41' E 007°19'0 0.3
2019-Jun-13 08:22N 43°41' E 007°19'0 0.1
2019-Jun-13 07:59N 43°41' E 007°19'0 0.8
2019-Jun-13 07:56N 43°41' E 007°19'1 2.1
2019-Jun-13 07:37N 43°42' E 007°19'1 4.6
2019-Jun-13 07:29N 43°41' E 007°19'018.9
2019-Jun-13 07:29N 43°41' E 007°19'511.0
2019-Jun-13 07:00N 43°36' E 007°18'5383.5 060 / 101025.827.0 20.612.319.9
2019-Jun-13 06:59N 43°41' E 007°19'0 3.4
2019-Jun-13 06:57N 43°41' E 007°19'1 5.1
2019-Jun-13 06:49N 43°42' E 007°19'1 2.2
2019-Jun-13 06:29N 43°41' E 007°19'0 3.2
2019-Jun-13 06:26N 43°41' E 007°19'0 0.6
2019-Jun-13 06:19N 43°41' E 007°19'0 0.9
2019-Jun-13 06:00N 43°42' E 007°19'029.1
2019-Jun-13 06:00N 43°41' E 007°19'0 8.4
2019-Jun-13 05:59N 43°41' E 007°19'0 0.2
2019-Jun-13 05:30N 43°41' E 007°19'0 7.2
2019-Jun-13 05:29N 43°41' E 007°19'0 0.3
2019-Jun-13 04:59N 43°41' E 007°19'0 9.9
2019-Jun-13 04:58N 43°41' E 007°19'0 0.1
2019-Jun-13 04:30N 43°41' E 007°19'1 2.9
2019-Jun-13 04:01N 43°40' E 007°19'2 4.3
2019-Jun-13 03:30N 43°38' E 007°21'2 3.5
2019-Jun-13 03:00N 43°37' E 007°23'2 3.5
2019-Jun-13 02:30N 43°37' E 007°25'2 4.2
2019-Jun-13 02:01N 43°38' E 007°28'6351.9
2019-Jun-13 02:00N 43°36' E 007°36'4 8.6 210 1023.810.8 19.013.720.0
2019-Jun-13 01:31N 43°38' E 007°31'2 4.3
2019-Jun-13 01:00N 43°38' E 007°34'2 4.6
2019-Jun-13 00:31N 43°38' E 007°37'2 4.4
2019-Jun-13 00:01N 43°38' E 007°40'2 3.9
2019-Jun-12 23:30N 43°38' E 007°43'2 3.8
2019-Jun-12 23:01N 43°38' E 007°46'2 4.0
2019-Jun-12 22:30N 43°38' E 007°48'2 4.0
2019-Jun-12 22:00N 43°38' E 007°51'3190.8
2019-Jun-12 22:00N 43°36' E 007°48'5 9.9 210 / 171023.810.8 19.013.720.0
2019-Jun-12 21:30N 43°38' E 007°54'2 4.3
2019-Jun-12 21:01N 43°38' E 007°57'2 4.3
2019-Jun-12 20:31N 43°38' E 007°60'2 4.1
2019-Jun-12 20:01N 43°38' E 008°03'2 3.2
2019-Jun-12 19:30N 43°38' E 008°05'2 3.2
2019-Jun-12 19:01N 43°39' E 008°07'3165.5
2019-Jun-12 19:00N 43°36' E 008°06'4 7.8 200 / 141023.827.0 19.512.319.2
2019-Jun-12 18:31N 43°39' E 008°09'2 3.2
2019-Jun-12 18:00N 43°39' E 008°11'2 4.1
2019-Jun-12 17:30N 43°40' E 008°14'4 7.1
2019-Jun-12 17:00N 43°41' E 008°18'4 7.1
2019-Jun-12 16:31N 43°44' E 008°22'3 6.9
2019-Jun-12 16:01N 43°46' E 008°26'3 6.7
2019-Jun-12 15:30N 43°47' E 008°30'1 2.5
2019-Jun-12 15:01N 43°47' E 008°32'2117.6
2019-Jun-12 15:00N 43°48' E 008°30'2 3.6 210 1021.810.8 21.014.020.0
2019-Jun-12 14:30N 43°46' E 008°31'1 1.5
2019-Jun-12 14:00N 43°47' E 008°30'1 1.7
2019-Jun-12 13:30N 43°47' E 008°32'1 1.7
2019-Jun-12 13:00N 43°47' E 008°30'1 1.6
2019-Jun-12 12:30N 43°47' E 008°31'0 0.6
2019-Jun-12 12:00N 43°46' E 008°31'1 1.8
2019-Jun-12 11:31N 43°47' E 008°30'1 1.1
2019-Jun-12 11:01N 43°47' E 008°30'1 1.2
2019-Jun-12 10:31N 43°47' E 008°31'1 1.2
2019-Jun-12 10:00N 43°47' E 008°30'5300.8
2019-Jun-12 10:00N 43°42' E 008°30'511.1 210 / 131021.810.8 21.014.020.0
2019-Jun-12 09:30N 43°47' E 008°30'0 0.2
2019-Jun-12 09:00N 43°47' E 008°30'1 1.5
2019-Jun-12 08:30N 43°48' E 008°29'1 1.3
2019-Jun-12 08:00N 43°48' E 008°29'1 2.6
2019-Jun-12 07:30N 43°49' E 008°31'1 2.8
2019-Jun-12 07:00N 43°50' E 008°32'1 2.7
2019-Jun-12 06:30N 43°51' E 008°34'1 3.0
2019-Jun-12 06:00N 43°52' E 008°35'5353.6
2019-Jun-12 06:00N 43°48' E 008°30'713.5 200 / 151019.727.0 19.714.320.1
2019-Jun-12 05:30N 43°53' E 008°37'2 3.1
2019-Jun-12 05:00N 43°53' E 008°38'2196.2
2019-Jun-12 05:00N 43°54' E 008°36'3 6.0 140 1019.710.8 21.017.520.0
2019-Jun-12 04:30N 43°55' E 008°40'1 3.0
2019-Jun-12 04:00N 43°55' E 008°42'1 2.9
2019-Jun-12 03:30N 43°56' E 008°43'2 3.1
2019-Jun-12 03:00N 43°57' E 008°45'6 6.2
2019-Jun-12 02:00N 44°01' E 008°52'3 6.4
2019-Jun-12 01:30N 44°03' E 008°55'3 6.8
2019-Jun-12 01:00N 44°06' E 008°58'3 6.3
2019-Jun-12 00:30N 44°08' E 009°02'2 3.1
2019-Jun-12 00:00N 44°09' E 009°04'2 3.2
2019-Jun-11 23:30N 44°10' E 009°05'2 3.3
2019-Jun-11 23:00N 44°11' E 009°07'2 3.3
2019-Jun-11 22:30N 44°12' E 009°09'2 3.2
2019-Jun-11 22:01N 44°13' E 009°11'3196.1
2019-Jun-11 22:00N 44°12' E 009°06'510.0 140 / 51019.710.8 21.017.520.0
2019-Jun-11 21:30N 44°14' E 009°12'2 3.2
2019-Jun-11 21:00N 44°15' E 009°14'2 3.1
2019-Jun-11 20:30N 44°15' E 009°16'1 2.6
2019-Jun-11 20:00N 44°17' E 009°16'2 3.9
2019-Jun-11 19:30N 44°18' E 009°14'1 1.0
2019-Jun-11 18:58N 44°19' E 009°14'0 0.0
2019-Jun-11 18:25N 44°19' E 009°14'1 3.4
2019-Jun-11 18:00N 44°18' E 009°12'148.2 230 / 91018.7 5.4 21.817.721.4
2019-Jun-11 17:58N 44°19' E 009°14'0 0.0
2019-Jun-11 17:29N 44°19' E 009°14'1 3.0
2019-Jun-11 17:00N 44°18' E 009°12'11299.8 220 / 111019.710.8 22.617.621.5
2019-Jun-11 16:59N 44°19' E 009°14'0 0.0
2019-Jun-11 16:26N 44°19' E 009°14'0 0.0
2019-Jun-11 15:59N 44°19' E 009°14'0 0.0
2019-Jun-11 15:29N 44°19' E 009°14'0 0.0
2019-Jun-11 14:59N 44°19' E 009°14'0 0.0
2019-Jun-11 14:29N 44°19' E 009°14'0 0.0
2019-Jun-11 13:59N 44°19' E 009°14'0 0.0
2019-Jun-11 13:26N 44°19' E 009°14'1 3.3
2019-Jun-11 13:00N 44°18' E 009°12'11323.5 220 / 111019.710.8 22.617.621.5
2019-Jun-11 12:59N 44°19' E 009°14'0 0.0
2019-Jun-11 12:29N 44°19' E 009°14'0 0.0
2019-Jun-11 11:59N 44°19' E 009°14'0 0.0
2019-Jun-11 11:29N 44°19' E 009°14'0 0.0
2019-Jun-11 10:59N 44°19' E 009°14'0 0.0
2019-Jun-11 10:26N 44°19' E 009°14'0 0.0
2019-Jun-11 09:59N 44°19' E 009°14'0 0.0
2019-Jun-11 09:29N 44°19' E 009°14'0 0.0
2019-Jun-11 08:59N 44°19' E 009°14'0 0.0
2019-Jun-11 08:29N 44°19' E 009°14'0 0.0
2019-Jun-11 07:56N 44°19' E 009°14'0 0.0
2019-Jun-11 07:26N 44°19' E 009°14'0 0.0
2019-Jun-11 06:59N 44°19' E 009°14'0 0.0
2019-Jun-11 06:29N 44°19' E 009°14'0 0.0
2019-Jun-11 06:00N 44°19' E 009°14'0 0.5
2019-Jun-11 05:30N 44°18' E 009°14'3 6.9
2019-Jun-11 05:00N 44°16' E 009°17'4 9.0
2019-Jun-11 04:30N 44°12' E 009°19'4 8.9
2019-Jun-11 04:00N 44°07' E 009°20'4 8.6
2019-Jun-11 03:30N 44°03' E 009°22'4 8.1
2019-Jun-11 03:00N 43°59' E 009°24'8492.0
2019-Jun-11 03:00N 44°06' E 009°18'1224.9 310 / 61020.810.8 20.017.520.0
2019-Jun-11 02:30N 43°56' E 009°26'4 8.4
2019-Jun-11 02:00N 43°52' E 009°29'4 8.5
2019-Jun-11 01:30N 43°48' E 009°31'4 8.5
2019-Jun-11 01:00N 43°44' E 009°34'4 8.5
2019-Jun-11 00:30N 43°40' E 009°36'4 8.4
2019-Jun-11 00:00N 43°36' E 009°39'4 7.9
2019-Jun-10 23:30N 43°34' E 009°43'4 8.6
2019-Jun-10 23:00N 43°33' E 009°49'6350.0
2019-Jun-10 23:00N 43°30' E 009°42'918.7 310 / 61020.810.8 20.017.520.0
2019-Jun-10 22:30N 43°31' E 009°54'4 8.3
2019-Jun-10 22:00N 43°30' E 009°60'4 8.3
2019-Jun-10 21:30N 43°30' E 010°06'4 8.2
2019-Jun-10 21:00N 43°30' E 010°11'4 8.2
2019-Jun-10 20:30N 43°32' E 010°16'1 2.7
2019-Jun-10 20:00N 43°33' E 010°18'0 0.0
2019-Jun-10 19:30N 43°33' E 010°18'0 0.0
2019-Jun-10 19:00N 43°33' E 010°18'0 0.0
2019-Jun-10 18:29N 43°33' E 010°18'3 6.4
2019-Jun-10 18:00N 43°30' E 010°18'3517.2 240 / 41018.710.8 22.117.620.5
2019-Jun-10 17:59N 43°33' E 010°18'0 0.0
2019-Jun-10 17:29N 43°33' E 010°18'3 6.4
2019-Jun-10 17:00N 43°30' E 010°18'3517.2 200 / 61020.810.8 26.0 9.819.0
2019-Jun-10 16:59N 43°33' E 010°18'0 0.0
2019-Jun-10 16:29N 43°33' E 010°18'0 0.0
2019-Jun-10 15:59N 43°33' E 010°18'0 0.0
2019-Jun-10 15:29N 43°33' E 010°18'0 0.0
2019-Jun-10 14:59N 43°33' E 010°18'0 0.0
2019-Jun-10 14:29N 43°33' E 010°18'0 0.0
2019-Jun-10 13:59N 43°33' E 010°18'0 0.0
2019-Jun-10 13:29N 43°33' E 010°18'0 0.0
2019-Jun-10 12:59N 43°33' E 010°18'0 0.0
2019-Jun-10 12:29N 43°33' E 010°18'3 6.4
2019-Jun-10 12:00N 43°30' E 010°18'3541.8 200 / 61020.810.8 26.0 9.819.0
2019-Jun-10 11:59N 43°33' E 010°18'0 0.0
2019-Jun-10 11:29N 43°33' E 010°18'0 0.0
2019-Jun-10 11:00N 43°33' E 010°18'0 0.0
2019-Jun-10 10:28N 43°33' E 010°18'0 0.0
2019-Jun-10 09:58N 43°33' E 010°18'0 0.0
2019-Jun-10 09:25N 43°33' E 010°18'0 0.0
2019-Jun-10 08:58N 43°33' E 010°18'0 0.0
2019-Jun-10 08:28N 43°33' E 010°18'0 0.0
2019-Jun-10 07:58N 43°33' E 010°18'0 0.0
2019-Jun-10 07:28N 43°33' E 010°18'510.9
2019-Jun-10 07:00N 43°30' E 010°12'5122.8 060 / 111021.7 23.710.719.7
2019-Jun-10 06:57N 43°33' E 010°18'0 0.0
2019-Jun-10 06:29N 43°33' E 010°18'0 0.0
2019-Jun-10 05:59N 43°33' E 010°18'0 0.0
2019-Jun-10 05:28N 43°33' E 010°18'0 0.0
2019-Jun-10 05:00N 43°33' E 010°18'862155090.5
2019-Jun-10 05:00N 43°30' E 030°06'8621782.8 080 / 141023.810.8 21.018.320.0
2019-Jun-10 04:31N 43°33' E 010°18'2 4.2
2019-Jun-10 04:00N 43°31' E 010°16'4 8.4
2019-Jun-10 03:31N 43°28' E 010°13'510.5
2019-Jun-10 03:00N 43°23' E 010°11'611.6
2019-Jun-10 02:30N 43°17' E 010°10'611.5
2019-Jun-10 02:00N 43°11' E 010°08'611.5
2019-Jun-10 01:30N 43°06' E 010°06'611.5
2019-Jun-10 01:01N 43°00' E 010°04'611.9
2019-Jun-10 00:31N 42°54' E 010°03'611.8
2019-Jun-10 00:00N 42°49' E 010°01'611.4
2019-Jun-09 23:30N 42°43' E 010°03'714.4
2019-Jun-09 23:00N 42°36' E 010°06'812.3 080 / 141023.810.8 21.018.320.0
2019-Jun-09 22:20N 42°33' E 010°16'411.7
2019-Jun-09 22:01N 42°30' E 010°20'611.9
2019-Jun-09 21:31N 42°26' E 010°25'611.9
2019-Jun-09 21:01N 42°21' E 010°29'612.1
2019-Jun-09 20:30N 42°15' E 010°33'612.1
2019-Jun-09 20:00N 42°10' E 010°37'4290.6
2019-Jun-09 20:00N 42°06' E 010°36'610.1 150 / 81025.827.0 22.918.320.2
2019-Jun-09 19:22N 42°05' E 010°44'412.2
2019-Jun-09 19:00N 42°04' E 010°50'612.1
2019-Jun-09 18:31N 42°03' E 010°58'811.9
2019-Jun-09 17:52N 42°01' E 011°08'411.9
2019-Jun-09 17:31N 41°59' E 011°13'611.8
2019-Jun-09 17:01N 41°58' E 011°21'1511.7
2019-Jun-09 15:45N 42°05' E 011°39'3 3.6
2019-Jun-09 15:00N 42°06' E 011°36'4 0.6 120 / 101029.810.8 24.014.520.0
2019-Jun-09 07:00N 42°06' E 011°42'0 0.0 120 / 101029.810.8 24.014.520.0
2019-Jun-09 03:00N 42°06' E 011°42'3310.0 010 / 71029.8 21.520.219.0
2019-Jun-08 23:39N 41°36' E 012°00'3117.5
2019-Jun-08 21:52N 41°17' E 012°34'617.1
2019-Jun-08 21:30N 41°13' E 012°40'1016.8
2019-Jun-08 20:55N 41°09' E 012°52'2617.1
2019-Jun-08 19:25N 40°55' E 013°21'817.0
2019-Jun-08 18:56N 40°51' E 013°30'1316.9
2019-Jun-08 18:11N 40°43' E 013°44'317.1
2019-Jun-08 18:00N 40°41' E 013°47'8606.7
2019-Jun-08 18:00N 40°42' E 013°36'1633.3 010 / 51031.910.8 23.018.822.0
2019-Jun-08 17:30N 40°39' E 013°57'816.5
2019-Jun-08 17:00N 40°41' E 014°07'816.9
2019-Jun-08 16:30N 40°47' E 014°15'3 5.6
2019-Jun-08 15:57N 40°50' E 014°16'0 0.0
2019-Jun-08 15:24N 40°50' E 014°16'4 8.7
2019-Jun-08 15:00N 40°48' E 014°12'442.0 180 / 71030.8 26.119.119.1
2019-Jun-08 14:54N 40°50' E 014°16'0 0.0
2019-Jun-08 14:27N 40°50' E 014°16'0 0.0
2019-Jun-08 13:57N 40°50' E 014°16'0 0.0
2019-Jun-08 13:27N 40°50' E 014°16'0 0.0
2019-Jun-08 12:57N 40°50' E 014°16'0 0.0
2019-Jun-08 12:27N 40°50' E 014°16'0 0.0
2019-Jun-08 11:51N 40°50' E 014°16'0 0.0
2019-Jun-08 11:31N 40°50' E 014°16'0 0.0
2019-Jun-08 11:00N 40°50' E 014°16'0 0.0
2019-Jun-08 10:31N 40°50' E 014°16'0 0.0
2019-Jun-08 10:01N 40°50' E 014°16'0 0.0
2019-Jun-08 09:31N 40°50' E 014°16'0 0.0
2019-Jun-08 09:01N 40°50' E 014°16'0 0.0
2019-Jun-08 08:31N 40°50' E 014°16'0 0.0
2019-Jun-08 08:01N 40°50' E 014°16'0 0.0
2019-Jun-08 07:31N 40°50' E 014°16'0 0.0
2019-Jun-08 07:00N 40°50' E 014°16'4324.9
2019-Jun-08 07:00N 40°48' E 014°12'4 7.4 090 / 21031.9 5.4 29.013.319.0
2019-Jun-08 06:30N 40°50' E 014°16'0 0.0
2019-Jun-08 06:00N 40°50' E 014°16'0 0.0
2019-Jun-08 05:30N 40°50' E 014°16'0 0.0
2019-Jun-08 05:00N 40°50' E 014°16'0 0.4
2019-Jun-08 04:30N 40°50' E 014°16'2 3.5
2019-Jun-08 04:00N 40°49' E 014°17'713.8
2019-Jun-08 03:30N 40°42' E 014°17'1016.9
2019-Jun-08 02:55N 40°32' E 014°19'717.1
2019-Jun-08 02:30N 40°26' E 014°23'816.8
2019-Jun-08 02:00N 40°18' E 014°28'6396.9
2019-Jun-08 02:00N 40°24' E 014°24'1530.3 200 / 71027.8 24.620.617.1
2019-Jun-08 01:30N 40°11' E 014°32'816.6
2019-Jun-08 01:00N 40°03' E 014°37'916.6
2019-Jun-08 00:28N 39°55' E 014°42'1616.8
2019-Jun-07 23:32N 39°41' E 014°51'116.8
2019-Jun-07 23:30N 39°41' E 014°52'816.8
2019-Jun-07 23:00N 39°33' E 014°56'816.9
2019-Jun-07 22:30N 39°25' E 015°01'1116.9
2019-Jun-07 21:52N 39°16' E 015°07'917.0
2019-Jun-07 21:19N 39°07' E 015°12'916.9
2019-Jun-07 20:48N 38°60' E 015°18'516.9
2019-Jun-07 20:29N 38°55' E 015°21'916.9
2019-Jun-07 19:59N 38°48' E 015°26'816.7
2019-Jun-07 19:30N 38°40' E 015°30'816.8
2019-Jun-07 19:00N 38°33' E 015°35'816.9
2019-Jun-07 18:31N 38°25' E 015°39'816.3
2019-Jun-07 18:00N 38°17' E 015°42'715.0
2019-Jun-07 17:30N 38°11' E 015°37'816.0
2019-Jun-07 17:01N 38°04' E 015°33'9521.2
2019-Jun-07 17:00N 38°12' E 015°36'1836.7 200 / 71027.8 24.620.617.1
2019-Jun-07 16:30N 37°55' E 015°29'1018.9
2019-Jun-07 16:00N 37°47' E 015°23'21 2.4
2019-Jun-07 07:00N 37°30' E 015°06'20 5.1 200 / 71027.8 24.620.617.1
2019-Jun-07 03:00N 37°12' E 015°18'7 8.4 280 / 101026.810.8 19.718.419.9
2019-Jun-07 02:13N 37°07' E 015°23'5216.3
2019-Jun-06 23:00N 36°18' E 015°00'39 7.7 110 / 51025.810.8 19.818.620.1
2019-Jun-06 18:00N 35°48' E 014°30'6 3.0 170 / 81026.810.8 22.018.520.0
2019-Jun-06 16:00N 35°54' E 014°30'   110 / 151025.810.8 24.116.219.7

Dump ship's entire track history